createdAt,value
2018-01-29T00:00:46.017Z,8.60
2018-01-29T00:03:14.375Z,8.70
2018-01-29T00:05:43.540Z,8.60
2018-01-29T00:08:11.905Z,8.60
2018-01-29T00:36:18.842Z,8.80
2018-01-29T00:38:47.252Z,8.80
2018-01-29T00:41:16.066Z,8.70
2018-01-29T00:43:45.564Z,8.70
2018-01-29T00:46:15.075Z,8.70
2018-01-29T00:48:44.403Z,8.80
2018-01-29T00:51:12.824Z,8.70
2018-01-29T00:53:41.192Z,8.70
2018-01-29T00:56:10.129Z,8.70
2018-01-29T00:58:39.120Z,8.70
2018-01-29T01:01:08.251Z,8.70
2018-01-29T01:03:38.149Z,8.70
2018-01-29T01:06:06.541Z,8.60
2018-01-29T01:08:34.904Z,8.70
2018-01-29T01:11:06.024Z,8.70
2018-01-29T01:13:35.151Z,8.70
2018-01-29T01:16:03.878Z,8.80
2018-01-29T01:18:32.283Z,8.80
2018-01-29T01:38:06.123Z,8.70
2018-01-29T01:40:34.487Z,8.70
2018-01-29T01:43:02.851Z,8.80
2018-01-29T01:45:31.999Z,8.80
2018-01-29T01:48:00.384Z,8.80
2018-01-29T01:50:29.557Z,8.70
2018-01-29T01:52:57.933Z,8.70
2018-01-29T01:55:26.292Z,8.80
2018-01-29T01:57:55.433Z,8.80
2018-01-29T02:00:23.816Z,8.80
2018-01-29T02:02:52.547Z,8.80
2018-01-29T02:05:21.676Z,8.70
2018-01-29T02:07:50.036Z,8.80
2018-01-29T02:10:17.744Z,8.80
2018-01-29T02:12:45.574Z,8.80
2018-01-29T02:15:13.951Z,8.80
2018-01-29T02:17:42.330Z,8.80
2018-01-29T02:20:10.041Z,8.80
2018-01-29T02:22:38.402Z,8.80
2018-01-29T02:25:06.776Z,8.80
2018-01-29T02:27:35.134Z,8.70
2018-01-29T02:30:03.451Z,8.70
2018-01-29T02:32:31.821Z,8.70
2018-01-29T02:35:00.213Z,8.70
2018-01-29T02:37:28.405Z,8.70
2018-01-29T02:39:57.532Z,8.60
2018-01-29T02:42:25.900Z,8.60
2018-01-29T02:44:54.261Z,8.50
2018-01-29T02:47:23.409Z,8.70
2018-01-29T02:49:51.580Z,8.70
2018-01-29T02:52:19.790Z,8.60
2018-01-29T02:54:48.407Z,8.60
2018-01-29T02:57:18.488Z,8.60
2018-01-29T02:59:46.663Z,8.50
2018-01-29T03:02:15.803Z,8.60
2018-01-29T03:04:44.183Z,8.60
2018-01-29T03:07:12.590Z,8.60
2018-01-29T03:09:41.118Z,8.60
2018-01-29T03:12:09.497Z,8.50
2018-01-29T03:14:37.916Z,8.60
2018-01-29T03:17:06.311Z,8.60
2018-01-29T03:19:34.504Z,8.60
2018-01-29T03:22:02.557Z,8.50
2018-01-29T03:24:32.073Z,8.50
2018-01-29T03:27:00.459Z,8.50
2018-01-29T03:29:28.828Z,8.60
2018-01-29T03:34:26.578Z,8.60
2018-01-29T03:36:54.962Z,8.60
2018-01-29T03:39:25.233Z,8.60
2018-01-29T03:41:55.108Z,8.60
2018-01-29T03:44:23.477Z,8.60
2018-01-29T03:46:51.836Z,8.60
2018-01-29T03:49:20.210Z,8.60
2018-01-29T03:51:48.588Z,8.50
2018-01-29T03:54:16.954Z,8.50
2018-01-29T03:56:45.321Z,8.50
2018-01-29T03:59:14.461Z,8.50
2018-01-29T04:01:42.821Z,8.60
2018-01-29T04:04:11.189Z,8.60
2018-01-29T04:06:39.563Z,8.50
2018-01-29T04:09:08.716Z,8.60
2018-01-29T04:11:37.098Z,8.60
2018-01-29T04:14:05.468Z,8.70
2018-01-29T04:21:33.926Z,8.80
2018-01-29T04:24:02.297Z,8.80
2018-01-29T04:26:31.092Z,8.50
2018-01-29T04:28:59.454Z,8.50
2018-01-29T04:31:28.584Z,8.60
2018-01-29T04:33:56.970Z,8.60
2018-01-29T04:36:25.327Z,8.60
2018-01-29T04:38:53.689Z,8.60
2018-01-29T04:41:22.828Z,8.70
2018-01-29T04:43:51.195Z,8.70
2018-01-29T04:46:21.324Z,8.70
2018-01-29T04:48:49.364Z,8.60
2018-01-29T04:51:17.730Z,8.70
2018-01-29T04:53:46.683Z,8.70
2018-01-29T04:56:14.867Z,8.60
2018-01-29T04:58:43.219Z,8.70
2018-01-29T05:01:11.620Z,8.70
2018-01-29T05:03:40.031Z,8.70
2018-01-29T05:06:08.492Z,8.80
2018-01-29T05:08:36.896Z,8.70
2018-01-29T05:11:06.036Z,8.80
2018-01-29T05:13:34.718Z,8.70
2018-01-29T05:16:02.412Z,8.70
2018-01-29T05:18:30.791Z,8.70
2018-01-29T05:20:59.204Z,8.70
2018-01-29T05:23:27.558Z,8.70
2018-01-29T05:25:57.068Z,8.70
2018-01-29T05:28:26.189Z,8.70
2018-01-29T05:30:54.540Z,8.60
2018-01-29T05:33:23.700Z,8.70
2018-01-29T05:35:57.495Z,8.80
2018-01-29T05:38:28.320Z,8.70
2018-01-29T05:40:56.684Z,8.70
2018-01-29T05:43:25.079Z,8.80
2018-01-29T05:45:53.441Z,8.80
2018-01-29T05:48:21.627Z,8.80
2018-01-29T05:50:49.994Z,8.70
2018-01-29T05:53:18.360Z,8.70
2018-01-29T05:55:46.732Z,8.80
2018-01-29T05:58:15.870Z,8.70
2018-01-29T06:00:44.333Z,8.70
2018-01-29T06:03:12.705Z,8.70
2018-01-29T06:05:40.877Z,8.70
2018-01-29T06:08:09.257Z,8.80
2018-01-29T06:10:37.645Z,8.70
2018-01-29T06:13:05.996Z,8.70
2018-01-29T06:15:34.375Z,8.80
2018-01-29T06:18:02.064Z,8.70
2018-01-29T06:20:30.451Z,8.70
2018-01-29T06:22:58.823Z,8.70
2018-01-29T06:25:27.176Z,8.60
2018-01-29T06:27:55.465Z,8.70
2018-01-29T06:30:23.835Z,8.70
2018-01-29T06:32:52.260Z,8.70
2018-01-29T06:35:20.695Z,8.60
2018-01-29T06:37:49.056Z,8.60
2018-01-29T06:40:18.200Z,8.80
2018-01-29T06:42:46.555Z,8.80
2018-01-29T06:45:14.952Z,8.70
2018-01-29T06:47:43.313Z,8.70
2018-01-29T06:50:11.712Z,8.80
2018-01-29T06:52:40.079Z,8.70
2018-01-29T06:55:08.436Z,8.70
2018-01-29T06:57:36.815Z,8.60
2018-01-29T07:00:04.532Z,8.70
2018-01-29T07:02:32.893Z,8.70
2018-01-29T07:05:01.281Z,8.70
2018-01-29T07:07:29.701Z,8.70
2018-01-29T07:09:58.398Z,8.70
2018-01-29T07:12:26.765Z,8.60
2018-01-29T07:14:56.293Z,8.60
2018-01-29T07:17:24.684Z,8.60
2018-01-29T07:19:53.044Z,8.70
2018-01-29T07:22:21.443Z,8.70
2018-01-29T07:24:49.825Z,8.70
2018-01-29T07:27:19.481Z,8.60
2018-01-29T07:29:48.623Z,8.60
2018-01-29T07:32:16.982Z,8.60
2018-01-29T07:34:45.371Z,8.60
2018-01-29T07:37:13.724Z,8.50
2018-01-29T07:39:43.049Z,8.80
2018-01-29T07:42:11.427Z,8.70
2018-01-29T07:44:39.783Z,8.70
2018-01-29T07:47:08.167Z,8.60
2018-01-29T07:49:36.533Z,8.70
2018-01-29T07:52:05.657Z,8.70
2018-01-29T07:54:34.035Z,8.60
2018-01-29T07:57:02.510Z,8.70
2018-01-29T07:59:31.689Z,8.60
2018-01-29T08:02:00.660Z,8.70
2018-01-29T08:04:29.795Z,8.70
2018-01-29T08:06:58.164Z,8.70
2018-01-29T08:09:26.522Z,8.60
2018-01-29T08:11:55.666Z,8.50
2018-01-29T08:14:24.020Z,8.50
2018-01-29T08:16:52.381Z,8.50
2018-01-29T08:21:50.160Z,8.60
2018-01-29T08:24:19.604Z,8.60
2018-01-29T08:26:47.968Z,8.60
2018-01-29T08:29:16.325Z,8.70
2018-01-29T08:31:44.727Z,8.60
2018-01-29T08:34:13.101Z,8.60
2018-01-29T08:36:41.556Z,8.60
2018-01-29T08:39:10.881Z,8.70
2018-01-29T08:41:39.241Z,8.70
2018-01-29T08:44:07.433Z,8.70
2018-01-29T08:46:35.620Z,8.70
2018-01-29T08:49:04.060Z,8.60
2018-01-29T08:51:33.191Z,8.70
2018-01-29T08:54:01.577Z,8.60
2018-01-29T08:56:29.787Z,8.70
2018-01-29T08:58:57.959Z,8.70
2018-01-29T09:01:26.672Z,8.60
2018-01-29T09:03:55.062Z,8.70
2018-01-29T09:06:23.427Z,8.70
2018-01-29T09:08:51.796Z,8.80
2018-01-29T09:11:20.926Z,8.80
2018-01-29T09:13:49.312Z,8.80
2018-01-29T09:16:17.674Z,8.90
2018-01-29T09:18:46.096Z,8.80
2018-01-29T09:21:14.468Z,8.80
2018-01-29T09:23:42.827Z,8.90
2018-01-29T09:26:11.208Z,8.90
2018-01-29T09:28:39.574Z,9.00
2018-01-29T09:31:07.954Z,8.90
2018-01-29T09:33:36.316Z,9.00
2018-01-29T09:36:04.369Z,8.90
2018-01-29T09:38:33.893Z,8.90
2018-01-29T09:41:03.388Z,8.90
2018-01-29T09:43:32.264Z,8.90
2018-01-29T09:46:01.406Z,8.90
2018-01-29T09:48:29.581Z,8.90
2018-01-29T09:50:59.099Z,8.90
2018-01-29T09:53:27.479Z,8.90
2018-01-29T09:55:55.854Z,8.90
2018-01-29T09:58:25.028Z,9.00
2018-01-29T10:00:53.420Z,8.90
2018-01-29T10:03:21.808Z,9.00
2018-01-29T10:05:51.120Z,9.10
2018-01-29T10:08:19.304Z,9.10
2018-01-29T10:10:48.808Z,9.00
2018-01-29T10:13:17.212Z,9.10
2018-01-29T10:15:46.364Z,9.00
2018-01-29T10:18:14.724Z,9.00
2018-01-29T10:20:43.100Z,9.00
2018-01-29T10:23:11.660Z,9.00
2018-01-29T10:25:40.023Z,9.00
2018-01-29T10:28:09.524Z,9.00
2018-01-29T10:30:38.673Z,9.10
2018-01-29T10:33:07.038Z,9.10
2018-01-29T10:35:35.416Z,9.10
2018-01-29T10:38:03.764Z,9.00
2018-01-29T10:40:32.136Z,9.10
2018-01-29T10:43:01.264Z,9.30
2018-01-29T10:45:29.671Z,9.30
2018-01-29T10:47:58.039Z,9.30
2018-01-29T10:50:26.398Z,9.30
2018-01-29T10:52:54.785Z,9.30
2018-01-29T10:55:23.144Z,9.20
2018-01-29T10:57:51.556Z,9.30
2018-01-29T11:00:20.854Z,9.20
2018-01-29T11:02:49.224Z,9.30
2018-01-29T11:05:17.588Z,9.10
2018-01-29T11:07:45.948Z,9.10
2018-01-29T11:10:14.434Z,9.20
2018-01-29T11:12:42.784Z,9.30
2018-01-29T11:15:11.920Z,9.10
2018-01-29T11:17:40.284Z,9.10
2018-01-29T11:20:08.640Z,9.10
2018-01-29T11:22:38.139Z,9.10
2018-01-29T11:25:07.289Z,9.10
2018-01-29T11:27:35.644Z,9.10
2018-01-29T11:30:03.353Z,9.20
2018-01-29T11:32:31.708Z,9.20
2018-01-29T11:35:00.440Z,9.30
2018-01-29T11:37:29.558Z,9.10
2018-01-29T11:39:57.920Z,9.10
2018-01-29T11:42:27.060Z,9.30
2018-01-29T11:44:55.425Z,9.30
2018-01-29T11:47:23.808Z,9.30
2018-01-29T11:49:51.843Z,9.20
2018-01-29T11:54:50.738Z,9.30
2018-01-29T11:57:19.872Z,9.20
2018-01-29T11:59:48.253Z,9.20
2018-01-29T12:02:16.647Z,9.10
2018-01-29T12:04:45.005Z,9.20
2018-01-29T12:07:13.377Z,9.20
2018-01-29T12:09:41.777Z,9.20
2018-01-29T12:12:11.283Z,9.20
2018-01-29T12:14:39.644Z,9.20
2018-01-29T12:17:08.008Z,9.10
2018-01-29T12:19:36.388Z,9.10
2018-01-29T12:22:04.752Z,9.10
2018-01-29T12:24:33.151Z,9.10
2018-01-29T12:27:01.519Z,9.10
2018-01-29T12:29:29.891Z,9.10
2018-01-29T12:31:58.259Z,9.10
2018-01-29T12:34:27.377Z,9.10
2018-01-29T12:36:55.811Z,9.10
2018-01-29T12:39:24.316Z,9.10
2018-01-29T12:41:53.442Z,9.20
2018-01-29T12:44:21.815Z,9.20
2018-01-29T12:46:50.193Z,9.10
2018-01-29T12:49:18.560Z,9.10
2018-01-29T12:51:46.927Z,9.10
2018-01-29T12:54:15.282Z,9.10
2018-01-29T12:56:43.668Z,9.10
2018-01-29T12:59:12.793Z,9.10
2018-01-29T13:01:41.150Z,9.10
2018-01-29T13:04:10.280Z,9.00
2018-01-29T13:06:38.632Z,9.00
2018-01-29T13:09:06.988Z,9.10
2018-01-29T13:11:36.136Z,9.10
2018-01-29T13:14:04.605Z,9.10
2018-01-29T13:16:33.004Z,9.20
2018-01-29T13:19:01.369Z,9.20
2018-01-29T13:21:29.727Z,9.10
2018-01-29T13:23:58.096Z,9.00
2018-01-29T13:26:26.521Z,9.10
2018-01-29T13:28:54.905Z,9.00
2018-01-29T13:31:23.335Z,8.90
2018-01-29T13:33:51.687Z,8.90
2018-01-29T13:36:20.832Z,8.90
2018-01-29T13:38:49.208Z,8.90
2018-01-29T13:41:17.856Z,8.90
2018-01-29T13:43:46.980Z,8.90
2018-01-29T13:46:15.335Z,8.90
2018-01-29T13:48:44.484Z,8.90
2018-01-29T13:51:12.852Z,8.90
2018-01-29T13:53:41.636Z,8.90
2018-01-29T13:56:10.052Z,8.90
2018-01-29T13:58:38.414Z,9.10
2018-01-29T14:01:06.835Z,9.10
2018-01-29T14:03:35.425Z,9.10
2018-01-29T14:06:04.178Z,9.10
2018-01-29T14:08:32.536Z,8.90
2018-01-29T14:11:00.944Z,8.90
2018-01-29T14:13:29.312Z,8.90
2018-01-29T14:15:57.667Z,8.90
2018-01-29T14:18:26.056Z,8.80
2018-01-29T14:20:54.492Z,8.80
2018-01-29T14:23:22.856Z,8.80
2018-01-29T14:25:51.241Z,8.80
2018-01-29T14:28:19.606Z,8.80
2018-01-29T14:30:49.041Z,8.70
2018-01-29T14:33:17.401Z,8.70
2018-01-29T14:35:45.764Z,8.70
2018-01-29T14:38:15.068Z,8.80
2018-01-29T14:40:43.384Z,8.80
2018-01-29T14:43:11.756Z,8.80
2018-01-29T14:45:40.136Z,8.90
2018-01-29T14:48:08.524Z,8.90
2018-01-29T14:50:36.244Z,9.00
2018-01-29T14:53:05.520Z,8.90
2018-01-29T14:55:33.909Z,9.00
2018-01-29T14:58:03.022Z,8.90
2018-01-29T15:00:31.438Z,8.90
2018-01-29T15:02:59.847Z,9.00
2018-01-29T15:05:28.259Z,9.10
2018-01-29T15:07:56.692Z,9.00
2018-01-29T15:10:25.132Z,9.00
2018-01-29T15:12:53.521Z,9.00
2018-01-29T15:15:21.896Z,9.00
2018-01-29T15:17:50.262Z,8.90
2018-01-29T15:20:18.818Z,8.90
2018-01-29T15:22:47.548Z,8.90
2018-01-29T15:25:15.918Z,9.00
2018-01-29T15:27:44.294Z,9.00
2018-01-29T15:30:12.784Z,9.00
2018-01-29T15:32:41.198Z,9.00
2018-01-29T15:35:09.577Z,9.00
2018-01-29T15:37:37.964Z,9.00
2018-01-29T15:40:07.312Z,8.90
2018-01-29T15:42:37.180Z,8.90
2018-01-29T15:45:05.522Z,8.90
2018-01-29T15:47:35.019Z,8.90
2018-01-29T15:50:03.405Z,8.90
2018-01-29T15:52:31.821Z,8.90
2018-01-29T15:55:01.208Z,8.80
2018-01-29T15:57:29.596Z,8.70
2018-01-29T15:59:58.393Z,8.80
2018-01-29T16:02:27.581Z,8.80
2018-01-29T16:04:56.147Z,8.80
2018-01-29T16:07:24.571Z,8.80
2018-01-29T16:09:52.986Z,8.80
2018-01-29T16:12:21.393Z,8.70
2018-01-29T16:14:49.768Z,8.80
2018-01-29T16:17:18.145Z,8.60
2018-01-29T16:19:46.520Z,8.50
2018-01-29T16:22:15.253Z,8.60
2018-01-29T16:24:43.629Z,8.60
2018-01-29T16:27:11.993Z,8.60
2018-01-29T16:29:41.131Z,8.70
2018-01-29T16:32:09.506Z,8.70
2018-01-29T16:34:37.899Z,8.70
2018-01-29T16:37:06.270Z,8.80
2018-01-29T16:39:34.622Z,8.70
2018-01-29T16:42:02.996Z,8.70
2018-01-29T16:44:31.389Z,8.80
2018-01-29T16:46:59.776Z,8.80
2018-01-29T16:49:28.142Z,8.80
2018-01-29T16:51:56.513Z,8.80
2018-01-29T16:54:25.033Z,8.80
2018-01-29T16:56:53.455Z,8.90
2018-01-29T16:59:21.896Z,8.80
2018-01-29T17:01:50.497Z,8.80
2018-01-29T17:04:19.805Z,8.70
2018-01-29T17:06:47.898Z,8.60
2018-01-29T17:09:16.261Z,8.60
2018-01-29T17:11:45.415Z,8.50
2018-01-29T17:14:13.778Z,8.50
2018-01-29T17:16:42.182Z,8.50
2018-01-29T17:19:10.846Z,8.50
2018-01-29T17:21:39.315Z,8.30
2018-01-29T17:24:07.861Z,8.20
2018-01-29T17:26:36.831Z,8.10
2018-01-29T17:29:05.272Z,8.10
2018-01-29T17:31:33.679Z,8.10
2018-01-29T17:34:02.324Z,8.20
2018-01-29T17:36:30.840Z,8.20
2018-01-29T17:38:59.237Z,8.20
2018-01-29T17:41:27.632Z,8.20
2018-01-29T17:43:56.874Z,8.20
2018-01-29T17:46:25.275Z,8.20
2018-01-29T17:48:53.652Z,8.20
2018-01-29T17:51:22.012Z,8.20
2018-01-29T17:53:50.380Z,8.20
2018-01-29T17:56:18.759Z,8.20
2018-01-29T17:58:47.144Z,8.20
2018-01-29T18:01:15.540Z,8.20
2018-01-29T18:03:43.919Z,8.20
2018-01-29T18:06:12.337Z,8.20
2018-01-29T18:08:40.995Z,8.20
2018-01-29T18:11:09.363Z,8.20
2018-01-29T18:13:39.284Z,8.10
2018-01-29T18:16:07.698Z,8.10
2018-01-29T18:18:36.070Z,8.10
2018-01-29T18:21:05.259Z,8.00
2018-01-29T18:23:34.394Z,8.00
2018-01-29T18:26:02.773Z,8.00
2018-01-29T18:28:31.139Z,8.00
2018-01-29T18:30:58.840Z,8.10
2018-01-29T18:33:27.227Z,8.10
2018-01-29T18:35:55.600Z,8.10
2018-01-29T18:38:24.023Z,8.10
2018-01-29T18:40:52.422Z,8.10
2018-01-29T18:43:20.791Z,8.10
2018-01-29T18:45:49.170Z,8.20
2018-01-29T18:48:17.540Z,8.20
2018-01-29T18:50:46.688Z,8.20
2018-01-29T18:53:15.058Z,8.20
2018-01-29T18:55:43.426Z,8.20
2018-01-29T18:58:12.032Z,8.30
2018-01-29T19:00:40.424Z,8.30
2018-01-29T19:13:06.383Z,8.30
2018-01-29T19:15:34.937Z,8.30
2018-01-29T19:18:04.122Z,8.20
2018-01-29T19:20:32.484Z,8.20
2018-01-29T19:23:01.660Z,8.20
2018-01-29T19:27:59.808Z,8.20
2018-01-29T19:30:28.179Z,8.30
2018-01-29T19:32:56.532Z,8.40
2018-01-29T19:35:25.669Z,8.40
2018-01-29T19:37:54.045Z,8.40
2018-01-29T19:40:21.760Z,8.30
2018-01-29T19:42:50.599Z,8.30
2018-01-29T19:45:19.341Z,8.20
2018-01-29T19:47:48.485Z,8.20
2018-01-29T19:50:16.851Z,8.20
2018-01-29T19:52:45.234Z,8.30
2018-01-29T19:55:13.633Z,8.10
2018-01-29T19:57:42.100Z,8.00
2018-01-29T20:00:10.464Z,7.90
2018-01-29T20:02:38.844Z,7.80
2018-01-29T20:05:06.919Z,7.70
2018-01-29T20:07:35.293Z,7.70
2018-01-29T20:10:03.380Z,7.50
2018-01-29T20:12:32.503Z,7.60
2018-01-29T20:15:01.806Z,7.60
2018-01-29T20:17:30.176Z,7.60
2018-01-29T20:19:58.566Z,7.50
2018-01-29T20:22:27.749Z,7.40
2018-01-29T20:24:56.120Z,7.40
2018-01-29T20:27:24.512Z,7.40
2018-01-29T20:29:52.892Z,7.30
2018-01-29T20:32:21.272Z,7.30
2018-01-29T20:34:49.726Z,7.30
2018-01-29T20:37:18.099Z,7.30
2018-01-29T20:39:46.481Z,7.20
2018-01-29T20:42:14.872Z,7.20
2018-01-29T20:44:43.275Z,7.10
2018-01-29T20:47:12.732Z,7.10
2018-01-29T20:49:41.131Z,7.10
2018-01-29T20:52:09.549Z,7.10
2018-01-29T20:54:37.924Z,6.90
2018-01-29T20:57:07.065Z,7.10
2018-01-29T20:59:35.469Z,7.10
2018-01-29T21:02:03.840Z,7.00
2018-01-29T21:04:32.192Z,7.00
2018-01-29T21:07:00.570Z,7.00
2018-01-29T21:09:28.596Z,7.00
2018-01-29T21:11:58.109Z,6.90
2018-01-29T21:14:26.496Z,6.90
2018-01-29T21:16:54.893Z,6.90
2018-01-29T21:19:23.268Z,6.90
2018-01-29T21:21:51.659Z,6.80
2018-01-29T21:24:20.103Z,6.80
2018-01-29T21:26:48.481Z,6.80
2018-01-29T21:29:16.864Z,6.70
2018-01-29T21:31:45.246Z,6.70
2018-01-29T21:34:13.620Z,6.70
2018-01-29T21:36:42.021Z,6.60
2018-01-29T21:39:10.044Z,6.60
2018-01-29T21:41:38.403Z,6.40
2018-01-29T21:44:06.790Z,6.50
2018-01-29T21:46:35.938Z,6.40
2018-01-29T21:49:04.319Z,6.30
2018-01-29T21:51:32.681Z,6.30
2018-01-29T21:54:01.244Z,6.20
2018-01-29T21:56:30.383Z,6.30
2018-01-29T21:58:58.739Z,6.10
2018-01-29T22:01:27.347Z,6.10
2018-01-29T22:03:55.748Z,6.00
2018-01-29T22:06:24.116Z,6.10
2018-01-29T22:08:53.449Z,6.00
2018-01-29T22:11:22.585Z,6.10
2018-01-29T22:13:50.632Z,6.10
2018-01-29T22:16:19.766Z,6.00
2018-01-29T22:18:48.141Z,6.10
2018-01-29T22:21:16.575Z,5.90
2018-01-29T22:23:44.987Z,6.00
2018-01-29T22:26:13.468Z,6.00
2018-01-29T22:28:41.836Z,6.00
2018-01-29T22:31:10.201Z,6.00
2018-01-29T22:33:39.361Z,5.90
2018-01-29T22:36:07.737Z,5.90
2018-01-29T22:38:36.123Z,5.90
2018-01-29T22:41:03.834Z,5.90
2018-01-29T22:43:32.224Z,5.90
2018-01-29T22:46:00.604Z,5.80
2018-01-29T22:48:28.965Z,5.80
2018-01-29T22:50:57.635Z,5.80
2018-01-29T22:53:26.767Z,5.80
2018-01-29T22:55:55.126Z,5.70
2018-01-29T22:58:23.498Z,5.70
2018-01-29T23:00:51.875Z,5.60
2018-01-29T23:03:20.251Z,5.60
2018-01-29T23:05:48.612Z,5.60
2018-01-29T23:08:17.404Z,5.60
2018-01-29T23:10:46.552Z,5.60
2018-01-29T23:13:14.915Z,5.50
2018-01-29T23:15:43.295Z,5.60
2018-01-29T23:18:11.668Z,5.70
2018-01-29T23:20:40.043Z,5.70
2018-01-29T23:23:08.412Z,5.60
2018-01-29T23:25:36.779Z,5.40
2018-01-29T23:28:05.142Z,5.40
2018-01-29T23:30:34.306Z,5.20
2018-01-29T23:33:02.677Z,5.10
2018-01-29T23:35:31.056Z,5.10
2018-01-29T23:37:59.432Z,5.20
2018-01-29T23:40:28.566Z,5.30
2018-01-29T23:42:57.706Z,5.20
2018-01-29T23:45:26.092Z,5.10
2018-01-29T23:47:54.459Z,5.40
2018-01-29T23:50:22.820Z,5.30
2018-01-29T23:52:51.556Z,5.50
2018-01-29T23:55:19.948Z,5.30
2018-01-29T23:57:48.320Z,5.50
